createdAt,value
2019-05-18T00:02:03.905Z,100493.17
2019-05-18T00:04:55.277Z,100490.68
2019-05-18T00:07:46.785Z,100490.88
2019-05-18T00:10:39.191Z,100492.34
2019-05-18T00:13:30.588Z,100488.30
2019-05-18T00:16:22.065Z,100482.39
2019-05-18T00:19:13.711Z,100491.98
2019-05-18T00:22:05.346Z,100486.87
2019-05-18T00:24:56.688Z,100489.39
2019-05-18T00:27:48.052Z,100492.30
2019-05-18T00:30:39.673Z,100492.13
2019-05-18T00:33:32.212Z,100483.48
2019-05-18T00:36:24.107Z,100482.66
2019-05-18T00:39:16.887Z,100483.48
2019-05-18T00:42:08.587Z,100481.13
2019-05-18T00:45:01.381Z,100478.27
2019-05-18T00:47:53.919Z,100473.20
2019-05-18T00:50:45.553Z,100469.70
2019-05-18T00:53:37.296Z,100469.50
2019-05-18T00:56:29.614Z,100470.75
2019-05-18T00:59:21.007Z,100470.59
2019-05-18T01:02:13.359Z,100467.73
2019-05-18T01:05:04.799Z,100468.97
2019-05-18T01:07:56.361Z,100466.56
2019-05-18T01:10:48.118Z,100466.97
2019-05-18T01:13:39.798Z,100467.91
2019-05-18T01:16:31.472Z,100470.56
2019-05-18T01:19:23.319Z,100463.70
2019-05-18T01:22:15.657Z,100464.66
2019-05-18T01:25:08.005Z,100462.23
2019-05-18T01:27:59.775Z,100459.95
2019-05-18T01:30:51.562Z,100463.92
2019-05-18T01:33:43.044Z,100465.67
2019-05-18T01:36:34.707Z,100459.84
2019-05-18T01:39:26.428Z,100461.81
2019-05-18T01:42:18.115Z,100463.45
2019-05-18T01:45:16.777Z,100466.29
2019-05-18T01:48:13.294Z,100464.18
2019-05-18T01:50:55.967Z,100468.91
2019-05-18T01:53:47.343Z,100465.69
2019-05-18T01:56:38.754Z,100463.64
2019-05-18T01:59:30.243Z,100459.42
2019-05-18T02:02:22.286Z,100462.55
2019-05-18T02:05:13.837Z,100462.36
2019-05-18T02:08:06.234Z,100464.23
2019-05-18T02:10:57.682Z,100464.19
2019-05-18T02:13:50.059Z,100461.16
2019-05-18T02:16:41.827Z,100461.75
2019-05-18T02:19:33.432Z,100460.75
2019-05-18T02:22:26.212Z,100455.34
2019-05-18T02:25:18.123Z,100445.85
2019-05-18T02:28:09.680Z,100442.61
2019-05-18T02:31:01.337Z,100443.08
2019-05-18T02:33:53.019Z,100440.31
2019-05-18T02:36:44.704Z,100440.64
2019-05-18T02:39:36.312Z,100449.11
2019-05-18T02:42:30.789Z,100448.79
2019-05-18T02:45:21.142Z,100444.13
2019-05-18T02:48:12.773Z,100444.88
2019-05-18T02:51:04.267Z,100447.22
2019-05-18T02:53:56.017Z,100440.42
2019-05-18T02:56:47.957Z,100440.28
2019-05-18T02:59:39.613Z,100435.61
2019-05-18T03:02:31.794Z,100435.82
2019-05-18T03:05:24.137Z,100438.97
2019-05-18T03:08:16.085Z,100435.27
2019-05-18T03:11:07.568Z,100438.97
2019-05-18T03:13:59.273Z,100435.75
2019-05-18T03:16:51.114Z,100435.31
2019-05-18T03:19:42.933Z,100431.45
2019-05-18T03:22:34.429Z,100429.85
2019-05-18T03:25:25.932Z,100432.62
2019-05-18T03:28:17.657Z,100426.67
2019-05-18T03:31:09.559Z,100425.36
2019-05-18T03:34:00.832Z,100424.73
2019-05-18T03:36:52.717Z,100423.02
2019-05-18T03:39:44.160Z,100423.66
2019-05-18T03:42:36.342Z,100423.06
2019-05-18T03:45:27.704Z,100424.45
2019-05-18T03:48:19.005Z,100426.72
2019-05-18T03:51:10.547Z,100425.34
2019-05-18T03:54:01.834Z,100429.63
2019-05-18T03:56:53.153Z,100429.36
2019-05-18T03:59:44.777Z,100434.34
2019-05-18T04:02:36.018Z,100431.84
2019-05-18T04:05:27.607Z,100430.73
2019-05-18T04:08:19.061Z,100431.25
2019-05-18T04:11:10.570Z,100434.43
2019-05-18T04:14:02.097Z,100437.33
2019-05-18T04:16:58.238Z,100436.54
2019-05-18T04:19:50.721Z,100433.69
2019-05-18T04:22:42.138Z,100436.51
2019-05-18T04:25:33.430Z,100433.28
2019-05-18T04:28:24.938Z,100435.83
2019-05-18T04:31:16.587Z,100437.58
2019-05-18T04:34:07.778Z,100441.16
2019-05-18T04:36:59.017Z,100440.00
2019-05-18T04:39:50.712Z,100442.92
2019-05-18T04:42:42.196Z,100440.70
2019-05-18T04:45:34.375Z,100442.83
2019-05-18T04:48:25.739Z,100449.47
2019-05-18T04:51:17.324Z,100452.02
2019-05-18T04:54:08.554Z,100443.06
2019-05-18T04:56:59.955Z,100443.11
2019-05-18T04:59:51.475Z,100445.48
2019-05-18T05:02:43.473Z,100440.84
2019-05-18T05:05:35.441Z,100437.81
2019-05-18T05:08:27.361Z,100440.64
2019-05-18T05:11:18.677Z,100443.33
2019-05-18T05:14:11.999Z,100444.61
2019-05-18T05:17:03.610Z,100438.13
2019-05-18T05:19:54.843Z,100438.94
2019-05-18T05:22:46.612Z,100442.56
2019-05-18T05:25:38.975Z,100444.34
2019-05-18T05:28:30.314Z,100442.68
2019-05-18T05:31:21.887Z,100439.91
2019-05-18T05:34:13.581Z,100438.69
2019-05-18T05:37:05.751Z,100439.86
2019-05-18T05:39:57.418Z,100443.86
2019-05-18T05:42:49.474Z,100433.36
2019-05-18T05:45:41.307Z,100432.31
2019-05-18T05:48:32.638Z,100436.27
2019-05-18T05:51:24.031Z,100433.19
2019-05-18T05:54:15.818Z,100434.98
2019-05-18T05:57:07.340Z,100438.83
2019-05-18T05:59:58.914Z,100437.36
2019-05-18T06:02:51.291Z,100438.13
2019-05-18T06:05:43.526Z,100435.20
2019-05-18T06:08:34.777Z,100436.32
2019-05-18T06:11:26.490Z,100430.75
2019-05-18T06:14:19.934Z,100426.17
2019-05-18T06:17:11.514Z,100430.17
2019-05-18T06:20:03.641Z,100434.41
2019-05-18T06:22:54.911Z,100431.91
2019-05-18T06:25:46.260Z,100437.63
2019-05-18T06:28:37.562Z,100434.70
2019-05-18T06:31:29.640Z,100433.84
2019-05-18T06:34:20.940Z,100434.60
2019-05-18T06:37:12.495Z,100439.48
2019-05-18T06:40:04.260Z,100441.20
2019-05-18T06:42:55.972Z,100434.45
2019-05-18T06:45:47.589Z,100428.02
2019-05-18T06:48:39.034Z,100424.14
2019-05-18T06:51:30.419Z,100423.73
2019-05-18T06:54:21.737Z,100417.52
2019-05-18T06:57:14.493Z,100420.26
2019-05-18T07:00:07.354Z,100418.41
2019-05-18T07:02:58.730Z,100417.00
2019-05-18T07:05:50.165Z,100420.14
2019-05-18T07:08:42.265Z,100423.02
2019-05-18T07:11:33.923Z,100421.04
2019-05-18T07:14:26.235Z,100425.92
2019-05-18T07:17:17.914Z,100432.63
2019-05-18T07:20:09.801Z,100423.27
2019-05-18T07:23:02.195Z,100428.97
2019-05-18T07:25:53.717Z,100432.89
2019-05-18T07:28:45.133Z,100434.59
2019-05-18T07:31:36.378Z,100440.85
2019-05-18T07:34:28.280Z,100436.72
2019-05-18T07:37:19.576Z,100432.89
2019-05-18T07:40:12.182Z,100436.28
2019-05-18T07:43:04.071Z,100436.89
2019-05-18T07:45:55.595Z,100430.61
2019-05-18T07:48:47.156Z,100428.84
2019-05-18T07:51:38.710Z,100431.13
2019-05-18T07:54:30.652Z,100445.50
2019-05-18T07:57:22.009Z,100441.32
2019-05-18T08:00:13.915Z,100432.52
2019-05-18T08:03:05.528Z,100434.57
2019-05-18T08:05:57.224Z,100437.23
2019-05-18T08:08:48.591Z,100440.19
2019-05-18T08:11:39.890Z,100431.27
2019-05-18T08:14:31.267Z,100426.34
2019-05-18T08:17:22.847Z,100425.59
2019-05-18T08:20:15.085Z,100428.52
2019-05-18T08:23:06.686Z,100439.69
2019-05-18T08:25:58.043Z,100437.08
2019-05-18T08:28:49.536Z,100437.91
2019-05-18T08:31:41.406Z,100436.84
2019-05-18T08:34:33.319Z,100433.75
2019-05-18T08:37:24.942Z,100439.06
2019-05-18T08:40:17.491Z,100434.98
2019-05-18T08:43:08.974Z,100439.86
2019-05-18T08:46:00.445Z,100437.53
2019-05-18T08:48:52.045Z,100434.53
2019-05-18T08:51:43.874Z,100440.78
2019-05-18T08:54:36.153Z,100445.39
2019-05-18T08:57:27.738Z,100442.53
2019-05-18T09:00:20.019Z,100435.98
2019-05-18T09:03:11.536Z,100439.00
2019-05-18T09:06:04.351Z,100445.64
2019-05-18T09:08:55.814Z,100444.20
2019-05-18T09:11:47.210Z,100439.56
2019-05-18T09:14:38.655Z,100441.28
2019-05-18T09:17:30.178Z,100442.59
2019-05-18T09:20:21.863Z,100442.04
2019-05-18T09:23:13.583Z,100441.36
2019-05-18T09:26:05.158Z,100444.33
2019-05-18T09:28:56.865Z,100443.52
2019-05-18T09:31:49.381Z,100444.73
2019-05-18T09:34:40.900Z,100440.17
2019-05-18T09:37:32.393Z,100432.63
2019-05-18T09:40:24.210Z,100429.92
2019-05-18T09:43:15.961Z,100441.27
2019-05-18T09:46:08.132Z,100448.98
2019-05-18T09:48:59.734Z,100452.66
2019-05-18T09:51:51.244Z,100457.47
2019-05-18T09:54:43.027Z,100457.59
2019-05-18T09:57:34.507Z,100454.76
2019-05-18T10:00:26.016Z,100455.41
2019-05-18T10:03:17.600Z,100463.53
2019-05-18T10:06:09.192Z,100458.48
2019-05-18T10:09:00.814Z,100464.61
2019-05-18T10:11:52.939Z,100458.70
2019-05-18T10:14:44.504Z,100458.53
2019-05-18T10:17:36.189Z,100462.67
2019-05-18T10:20:28.711Z,100465.25
2019-05-18T10:23:20.050Z,100466.25
2019-05-18T10:26:13.599Z,100464.48
2019-05-18T10:29:05.948Z,100468.45
2019-05-18T10:31:58.883Z,100464.36
2019-05-18T10:34:50.286Z,100463.63
2019-05-18T10:37:41.955Z,100457.41
2019-05-18T10:40:33.689Z,100460.75
2019-05-18T10:43:25.122Z,100455.13
2019-05-18T10:46:16.645Z,100458.16
2019-05-18T10:49:08.252Z,100446.13
2019-05-18T10:52:00.240Z,100451.45
2019-05-18T10:54:52.142Z,100447.03
2019-05-18T10:57:43.848Z,100448.02
2019-05-18T11:00:35.205Z,100450.39
2019-05-18T11:03:26.777Z,100440.66
2019-05-18T11:06:18.504Z,100436.31
2019-05-18T11:09:10.173Z,100435.35
2019-05-18T11:12:01.531Z,100436.16
2019-05-18T11:14:53.108Z,100433.09
2019-05-18T11:17:45.417Z,100434.00
2019-05-18T11:20:36.940Z,100427.02
2019-05-18T11:23:41.477Z,100427.51
2019-05-18T11:26:21.143Z,100421.55
2019-05-18T11:29:12.706Z,100414.02
2019-05-18T11:32:04.357Z,100412.54
2019-05-18T11:34:56.627Z,100409.69
2019-05-18T11:37:48.089Z,100411.38
2019-05-18T11:40:39.742Z,100405.39
2019-05-18T11:43:31.032Z,100407.73
2019-05-18T11:46:22.585Z,100406.95
2019-05-18T11:49:14.001Z,100405.16
2019-05-18T11:52:05.320Z,100405.72
2019-05-18T11:54:57.008Z,100400.36
2019-05-18T11:57:48.401Z,100405.66
2019-05-18T12:00:39.710Z,100394.09
2019-05-18T12:03:31.099Z,100397.13
2019-05-18T12:06:22.828Z,100393.03
2019-05-18T12:09:14.096Z,100389.20
2019-05-18T12:12:05.911Z,100387.47
2019-05-18T12:14:57.495Z,100395.14
2019-05-18T12:17:48.927Z,100393.59
2019-05-18T12:20:40.496Z,100395.39
2019-05-18T12:23:31.775Z,100381.38
2019-05-18T12:26:23.043Z,100382.64
2019-05-18T12:29:14.500Z,100383.65
2019-05-18T12:32:05.908Z,100382.89
2019-05-18T12:34:57.382Z,100389.56
2019-05-18T12:37:49.147Z,100393.70
2019-05-18T12:40:40.557Z,100396.91
2019-05-18T12:43:32.406Z,100399.45
2019-05-18T12:46:24.019Z,100398.34
2019-05-18T12:49:15.703Z,100401.87
2019-05-18T12:52:07.167Z,100400.54
2019-05-18T12:54:58.896Z,100395.28
2019-05-18T12:57:50.947Z,100393.84
2019-05-18T13:00:42.951Z,100392.30
2019-05-18T13:03:34.506Z,100402.59
2019-05-18T13:06:27.109Z,100406.17
2019-05-18T13:09:18.459Z,100403.70
2019-05-18T13:12:11.769Z,100401.59
2019-05-18T13:15:03.146Z,100408.95
2019-05-18T13:17:54.617Z,100403.47
2019-05-18T13:20:46.000Z,100408.07
2019-05-18T13:23:37.502Z,100406.12
2019-05-18T13:26:29.711Z,100398.37
2019-05-18T13:29:21.331Z,100404.73
2019-05-18T13:32:12.659Z,100399.16
2019-05-18T13:35:04.409Z,100399.84
2019-05-18T13:37:56.046Z,100398.11
2019-05-18T13:40:47.408Z,100396.05
2019-05-18T13:43:38.823Z,100394.50
2019-05-18T13:46:30.265Z,100400.05
2019-05-18T13:49:21.777Z,100399.76
2019-05-18T13:52:13.568Z,100398.44
2019-05-18T13:55:05.509Z,100401.89
2019-05-18T13:57:57.201Z,100399.77
2019-05-18T14:00:49.325Z,100400.31
2019-05-18T14:03:41.079Z,100401.69
2019-05-18T14:06:32.659Z,100399.27
2019-05-18T14:09:24.042Z,100410.16
2019-05-18T14:12:15.872Z,100410.30
2019-05-18T14:15:08.598Z,100412.08
2019-05-18T14:18:00.025Z,100408.48
2019-05-18T14:20:51.646Z,100415.15
2019-05-18T14:23:43.451Z,100410.34
2019-05-18T14:26:35.091Z,100414.73
2019-05-18T14:29:27.016Z,100414.58
2019-05-18T14:32:18.509Z,100406.24
2019-05-18T14:35:10.364Z,100401.48
2019-05-18T14:38:01.795Z,100397.73
2019-05-18T14:40:53.538Z,100395.44
2019-05-18T14:43:44.899Z,100396.37
2019-05-18T14:46:36.563Z,100395.86
2019-05-18T14:49:27.911Z,100391.11
2019-05-18T14:52:19.331Z,100391.41
2019-05-18T14:55:11.698Z,100394.08
2019-05-18T14:58:03.019Z,100392.39
2019-05-18T15:00:54.371Z,100386.34
2019-05-18T15:03:45.819Z,100377.25
2019-05-18T15:06:37.375Z,100375.54
2019-05-18T15:09:29.389Z,100377.23
2019-05-18T15:12:21.542Z,100380.19
2019-05-18T15:15:14.126Z,100379.98
2019-05-18T15:18:05.422Z,100374.73
2019-05-18T15:20:57.028Z,100375.52
2019-05-18T15:23:48.671Z,100376.85
2019-05-18T15:26:41.434Z,100382.79
2019-05-18T15:29:33.006Z,100386.70
2019-05-18T15:32:24.479Z,100380.65
2019-05-18T15:35:16.625Z,100380.89
2019-05-18T15:38:08.156Z,100377.14
2019-05-18T15:40:59.459Z,100383.91
2019-05-18T15:43:51.699Z,100385.87
2019-05-18T15:46:43.242Z,100387.18
2019-05-18T15:49:34.504Z,100392.28
2019-05-18T15:52:25.786Z,100392.38
2019-05-18T15:55:17.381Z,100390.03
2019-05-18T15:58:08.904Z,100394.42
2019-05-18T16:01:00.648Z,100394.17
2019-05-18T16:03:51.930Z,100391.50
2019-05-18T16:06:44.156Z,100394.84
2019-05-18T16:09:36.631Z,100398.84
2019-05-18T16:12:28.094Z,100406.74
2019-05-18T16:15:19.571Z,100402.75
2019-05-18T16:18:11.267Z,100406.72
2019-05-18T16:21:03.060Z,100399.58
2019-05-18T16:23:54.433Z,100403.10
2019-05-18T16:26:45.732Z,100404.22
2019-05-18T16:29:37.145Z,100404.14
2019-05-18T16:32:28.456Z,100403.25
2019-05-18T16:35:19.966Z,100407.03
2019-05-18T16:38:11.554Z,100402.70
2019-05-18T16:41:02.971Z,100403.91
2019-05-18T16:43:54.419Z,100412.09
2019-05-18T16:46:45.914Z,100414.39
2019-05-18T16:49:37.376Z,100411.58
2019-05-18T16:52:28.924Z,100416.48
2019-05-18T16:55:20.462Z,100410.07
2019-05-18T16:58:11.893Z,100409.51
2019-05-18T17:01:03.219Z,100413.51
2019-05-18T17:03:54.981Z,100411.13
2019-05-18T17:06:46.611Z,100418.91
2019-05-18T17:09:37.931Z,100419.45
2019-05-18T17:12:30.104Z,100424.64
2019-05-18T17:15:22.710Z,100419.89
2019-05-18T17:18:14.491Z,100424.70
2019-05-18T17:21:06.267Z,100431.00
2019-05-18T17:23:57.848Z,100433.69
2019-05-18T17:26:53.043Z,100434.98
2019-05-18T17:29:42.817Z,100432.23
2019-05-18T17:32:34.968Z,100436.24
2019-05-18T17:35:26.527Z,100443.81
2019-05-18T17:38:17.947Z,100439.23
2019-05-18T17:41:09.674Z,100445.78
2019-05-18T17:44:01.462Z,100456.70
2019-05-18T17:46:52.843Z,100462.14
2019-05-18T17:49:44.316Z,100464.56
2019-05-18T17:52:36.400Z,100470.38
2019-05-18T17:55:28.162Z,100471.13
2019-05-18T17:58:19.922Z,100479.19
2019-05-18T18:01:11.562Z,100482.00
2019-05-18T18:04:03.027Z,100485.72
2019-05-18T18:06:54.837Z,100494.82
2019-05-18T18:09:46.248Z,100498.47
2019-05-18T18:12:37.855Z,100501.28
2019-05-18T18:15:29.618Z,100503.59
2019-05-18T18:18:21.567Z,100500.06
2019-05-18T18:21:13.185Z,100512.12
2019-05-18T18:24:05.396Z,100514.55
2019-05-18T18:26:56.917Z,100514.70
2019-05-18T18:29:49.298Z,100509.92
2019-05-18T18:32:40.980Z,100510.33
2019-05-18T18:35:33.420Z,100513.55
2019-05-18T18:38:25.280Z,100512.02
2019-05-18T18:41:16.857Z,100518.50
2019-05-18T18:44:09.564Z,100517.50
2019-05-18T18:47:01.906Z,100516.59
2019-05-18T18:49:54.406Z,100526.88
2019-05-18T18:52:46.436Z,100531.45
2019-05-18T18:55:38.643Z,100528.80
2019-05-18T18:58:30.145Z,100531.20
2019-05-18T19:01:21.564Z,100539.48
2019-05-18T19:04:12.916Z,100541.25
2019-05-18T19:07:04.499Z,100535.72
2019-05-18T19:09:56.132Z,100546.93
2019-05-18T19:12:47.672Z,100548.86
2019-05-18T19:15:39.451Z,100553.86
2019-05-18T19:18:31.071Z,100556.61
2019-05-18T19:21:23.492Z,100560.56
2019-05-18T19:24:15.385Z,100561.68
2019-05-18T19:27:06.942Z,100561.00
2019-05-18T19:29:58.750Z,100572.52
2019-05-18T19:32:50.359Z,100577.47
2019-05-18T19:35:42.170Z,100584.11
2019-05-18T19:38:33.804Z,100590.88
2019-05-18T19:41:25.674Z,100598.02
2019-05-18T19:44:17.536Z,100598.98
2019-05-18T19:47:09.540Z,100594.53
2019-05-18T19:50:01.040Z,100599.86
2019-05-18T19:52:55.383Z,100593.75
2019-05-18T19:55:47.159Z,100596.21
2019-05-18T19:58:38.876Z,100594.64
2019-05-18T20:01:30.684Z,100599.49
2019-05-18T20:04:22.304Z,100601.48
2019-05-18T20:07:14.040Z,100596.92
2019-05-18T20:10:06.491Z,100602.97
2019-05-18T20:12:57.944Z,100599.09
2019-05-18T20:15:49.659Z,100601.98
2019-05-18T20:18:41.952Z,100607.10
2019-05-18T20:21:33.536Z,100608.35
2019-05-18T20:24:25.230Z,100608.34
2019-05-18T20:27:16.737Z,100608.47
2019-05-18T20:30:09.485Z,100613.77
2019-05-18T20:33:01.028Z,100609.87
2019-05-18T20:35:52.666Z,100612.20
2019-05-18T20:38:44.905Z,100621.02
2019-05-18T20:41:36.289Z,100619.25
2019-05-18T20:44:27.999Z,100617.97
2019-05-18T20:47:20.298Z,100623.59
2019-05-18T20:50:12.544Z,100624.07
2019-05-18T20:53:04.244Z,100623.62
2019-05-18T20:55:55.855Z,100616.87
2019-05-18T20:58:47.323Z,100614.73
2019-05-18T21:01:38.889Z,100618.45
2019-05-18T21:04:30.864Z,100610.26
2019-05-18T21:07:22.478Z,100616.61
2019-05-18T21:10:14.012Z,100617.59
2019-05-18T21:13:05.870Z,100620.14
2019-05-18T21:15:57.330Z,100624.04
2019-05-18T21:18:50.090Z,100622.60
2019-05-18T21:21:42.482Z,100621.02
2019-05-18T21:24:34.174Z,100624.41
2019-05-18T21:27:26.894Z,100626.77
2019-05-18T21:30:18.204Z,100625.55
2019-05-18T21:33:09.997Z,100621.89
2019-05-18T21:36:01.374Z,100626.59
2019-05-18T21:38:54.406Z,100626.28
2019-05-18T21:41:45.783Z,100625.86
2019-05-18T21:44:37.244Z,100625.08
2019-05-18T21:47:28.799Z,100622.89
2019-05-18T21:50:20.594Z,100623.74
2019-05-18T21:53:12.223Z,100621.45
2019-05-18T21:56:04.149Z,100621.61
2019-05-18T21:59:10.184Z,100619.27
2019-05-18T22:01:48.885Z,100616.56
2019-05-18T22:04:40.563Z,100620.97
2019-05-18T22:07:32.559Z,100618.66
2019-05-18T22:10:26.087Z,100613.15
2019-05-18T22:13:17.963Z,100612.14
2019-05-18T22:16:10.126Z,100612.44
2019-05-18T22:19:02.250Z,100615.97
2019-05-18T22:21:53.805Z,100611.98
2019-05-18T22:24:45.101Z,100611.72
2019-05-18T22:27:36.937Z,100609.11
2019-05-18T22:30:28.231Z,100614.17
2019-05-18T22:33:19.785Z,100608.52
2019-05-18T22:36:11.531Z,100608.84
2019-05-18T22:39:05.016Z,100609.47
2019-05-18T22:41:56.392Z,100610.11
2019-05-18T22:44:47.662Z,100612.08
2019-05-18T22:47:39.007Z,100615.31
2019-05-18T22:50:30.620Z,100612.25
2019-05-18T22:53:22.303Z,100610.05
2019-05-18T22:56:13.875Z,100609.84
2019-05-18T22:59:05.514Z,100606.95
2019-05-18T23:01:57.610Z,100607.38
2019-05-18T23:04:49.957Z,100607.39
2019-05-18T23:07:42.439Z,100605.45
2019-05-18T23:10:33.856Z,100603.39
2019-05-18T23:13:25.262Z,100608.24
2019-05-18T23:16:16.687Z,100604.05
2019-05-18T23:19:08.455Z,100601.25
2019-05-18T23:21:59.875Z,100601.99
2019-05-18T23:24:52.328Z,100602.48
2019-05-18T23:27:44.318Z,100601.41
2019-05-18T23:30:36.247Z,100604.87
2019-05-18T23:33:27.772Z,100610.63
2019-05-18T23:36:19.516Z,100610.30
2019-05-18T23:39:11.402Z,100607.86
2019-05-18T23:42:02.876Z,100608.92
2019-05-18T23:44:54.666Z,100611.27
2019-05-18T23:47:46.967Z,100606.11
2019-05-18T23:50:38.767Z,100607.97
2019-05-18T23:53:30.300Z,100604.67
2019-05-18T23:56:22.821Z,100602.84
2019-05-18T23:59:14.424Z,100600.30
